Latest Weather Observations for Hunters Hill

IDV60801

Issued at 6:02 am EDT Friday 27 March 2015 (issued every 30 minutes, with the page automatically refreshed every 10 minutes)

About weather observations | Map of weather stations | Latest weather observations for VIC | Other Formats
Station Details ID: 082139 Name: HUNTERS HILL Lat: -36.21 Lon: 147.54 Height: 981.0 m
Data from the previous 72 hours. | See also: Recent months at Hunters Hill
Date/Time
EDT
Temp
°C
App
Temp
°C
Dew
Point
Rel
Hum
%
Delta-T
°C
Wind Press
QNH
hPa
Press
MSL
hPa
Rain
since 9 am
mm
Dir
 
Spd
km/h
Gust
km/h
Spd
kts
Gust
kts
27/06:00am 4.9 2.6 4.6 98 0.1 NW 6 17 3 9 - - 0.0
27/05:30am 4.8 1.4 4.2 96 0.3 W 11 20 6 11 - - 0.0
27/05:00am 4.8 1.4 3.8 93 0.4 W 11 20 6 11 - - 0.0
27/04:30am 4.7 1.1 3.2 90 0.7 WNW 11 24 6 13 - - 0.0
27/04:00am 5.1 1.5 3.1 87 0.9 WNW 11 24 6 13 - - 0.0
27/03:30am 5.4 1.4 3.1 85 1.0 W 13 24 7 13 - - 0.0
27/03:00am 5.7 2.0 2.5 80 1.4 WNW 11 22 6 12 - - 0.0
27/02:30am 5.8 2.1 2.3 78 1.5 WNW 11 26 6 14 - - 0.0
27/02:00am 6.3 1.8 2.0 74 1.9 W 15 33 8 18 - - 0.0
27/01:30am 6.7 2.1 1.4 69 2.3 W 15 30 8 16 - - 0.0
27/01:00am 7.0 1.4 0.9 65 2.6 W 20 43 11 23 - - 0.0
27/12:30am 7.1 1.3 0.1 61 2.9 W 20 35 11 19 - - 0.0
27/12:00am 7.2 1.6 -0.3 59 3.1 W 19 33 10 18 - - 0.0
 
Date/Time
EDT
Temp
°C
App
Temp
°C
Dew
Point
Rel
Hum
%
Delta-T
°C
Wind Press
QNH
hPa
Press
MSL
hPa
Rain
since 9 am
mm
Dir
 
Spd
km/h
Gust
km/h
Spd
kts
Gust
kts
26/11:30pm 7.5 1.7 -1.2 54 3.5 W 19 32 10 17 - - 0.0
26/11:00pm 7.5 2.1 -1.4 53 3.6 W 17 35 9 19 - - 0.0
26/10:30pm 7.5 2.8 -1.7 52 3.7 WNW 13 28 7 15 - - 0.0
26/10:00pm 7.4 2.7 -1.8 52 3.7 W 13 24 7 13 - - 0.0
26/09:30pm 7.4 3.0 -2.1 51 3.8 W 11 20 6 11 - - 0.0
26/09:00pm 7.6 3.3 -1.9 51 3.8 WNW 11 24 6 13 - - 0.0
26/08:30pm 8.0 3.3 -2.0 49 4.0 W 13 24 7 13 - - 0.0
26/08:00pm 8.0 2.9 -2.0 49 4.0 W 15 33 8 18 - - 0.0
26/07:30pm 8.4 3.7 -2.0 48 4.2 W 13 24 7 13 - - 0.0
26/07:00pm 9.0 3.5 -2.0 46 4.4 W 17 33 9 18 - - 0.0
26/06:30pm 9.1 4.3 -2.2 45 4.5 W 13 26 7 14 - - 0.0
26/06:00pm 10.2 5.0 -2.4 41 5.1 W 15 28 8 15 - - 0.0
26/05:30pm 10.8 6.2 -1.3 43 5.1 W 13 24 7 13 - - 0.0
26/05:00pm 11.2 5.6 -2.9 37 5.7 W 17 30 9 16 - - 0.0
26/04:30pm 11.8 7.1 -1.7 39 5.6 W 13 30 7 16 - - 0.0
26/04:00pm 11.4 5.9 -2.4 38 5.7 W 17 33 9 18 - - 0.0
26/03:30pm 11.4 5.5 -2.4 38 5.7 WNW 19 41 10 22 - - 0.0
26/03:00pm 10.6 5.2 -1.4 43 5.0 WNW 17 35 9 19 - - 0.0
26/02:30pm 10.6 4.7 -1.1 44 4.9 WNW 20 35 11 19 - - 0.0
26/02:00pm 10.4 5.5 -0.4 47 4.6 W 15 32 8 17 - - 0.0
26/01:30pm 9.8 4.9 -0.4 49 4.3 WNW 15 28 8 15 - - 0.0
26/01:00pm 10.0 5.3 0.6 52 4.1 W 15 30 8 16 - - 0.0
26/12:30pm 9.5 5.3 1.4 57 3.6 WNW 13 28 7 15 - - 0.0
26/12:00pm 9.1 4.1 1.5 59 3.3 W 17 30 9 16 - - 0.0
26/11:30am 7.9 3.4 2.4 68 2.4 WNW 15 26 8 14 - - 0.0
26/11:00am 7.3 3.4 3.2 75 1.8 WNW 13 28 7 15 - - 0.0
26/10:30am 8.9 5.8 3.5 69 2.5 W 9 17 5 9 - - 0.0
26/10:00am 8.3 4.5 1.7 63 2.9 W 11 19 6 10 - - 0.0
26/09:30am 8.7 5.6 1.4 60 3.2 WNW 7 17 4 9 - - 0.0
26/09:00am 8.2 5.0 0.9 60 3.1 NNW 7 11 4 6 - - 0.0
26/08:30am 7.6 4.6 0.6 61 3.0 WNW 6 9 3 5 - - 0.0
26/08:00am 7.5 3.9 0.3 60 3.0 WNW 9 15 5 8 - - 0.0
26/07:30am 7.0 3.3 0.0 61 2.9 WNW 9 17 5 9 - - 0.0
26/07:00am 7.0 3.9 0.0 61 2.9 NW 6 11 3 6 - - 0.0
26/06:30am 7.4 4.1 -0.1 59 3.1 WNW 7 9 4 5 - - 0.0
26/06:00am 7.0 3.8 -0.2 60 3.0 WNW 6 9 3 5 - - 0.0
26/05:30am 7.3 4.0 -0.2 59 3.1 W 7 15 4 8 - - 0.0
26/05:00am 7.3 4.0 -0.2 59 3.1 WNW 7 11 4 6 - - 0.0
26/04:30am 7.7 4.5 -0.8 55 3.5 W 6 9 3 5 - - 0.0
26/04:00am 8.0 4.2 -0.5 55 3.5 W 9 15 5 8 - - 0.0
26/03:30am 7.5 4.3 0.5 61 3.0 W 7 13 4 7 - - 0.0
26/03:00am 7.9 3.9 0.6 60 3.1 WSW 11 22 6 12 - - 0.0
26/02:30am 8.2 4.7 1.4 62 3.0 WSW 9 24 5 13 - - 0.0
26/02:00am 8.3 4.6 2.5 67 2.6 W 11 19 6 10 - - 0.0
26/01:30am 9.0 5.8 3.2 67 2.6 W 9 17 5 9 - - 0.0
26/01:00am 9.7 6.9 3.2 64 3.0 WNW 7 20 4 11 - - 0.0
26/12:30am 10.1 7.3 2.9 61 3.3 NW 7 15 4 8 - - 0.0
26/12:00am 10.7 7.1 3.0 59 3.5 WNW 11 19 6 10 - - 0.0
 
Date/Time
EDT
Temp
°C
App
Temp
°C
Dew
Point
Rel
Hum
%
Delta-T
°C
Wind Press
QNH
hPa
Press
MSL
hPa
Rain
since 9 am
mm
Dir
 
Spd
km/h
Gust
km/h
Spd
kts
Gust
kts
25/11:30pm 10.8 7.6 3.1 59 3.6 WNW 9 17 5 9 - - 0.0
25/11:00pm 10.6 8.0 3.2 60 3.4 WNW 6 11 3 6 - - 0.0
25/10:30pm 11.1 7.8 2.7 56 3.9 W 9 17 5 9 - - 0.0
25/10:00pm 11.2 7.9 2.5 55 4.0 W 9 19 5 10 - - 0.0
25/09:30pm 12.2 8.9 2.4 51 4.5 WNW 9 17 5 9 - - 0.0
25/09:00pm 12.5 8.9 2.9 52 4.5 WNW 11 17 6 9 - - 0.0
25/08:30pm 13.0 9.7 4.4 56 4.2 WNW 11 20 6 11 - - 0.0
25/08:00pm 14.0 11.1 4.6 53 4.6 NNW 9 15 5 8 - - 0.0
25/07:30pm 13.7 11.2 4.6 54 4.4 N 7 17 4 9 - - 0.0
25/07:00pm 14.3 11.7 4.3 51 4.9 N 7 19 4 10 - - 0.0
25/06:30pm 15.0 12.6 4.4 49 5.2 NNW 6 11 3 6 - - 0.0
25/06:00pm 16.2 14.0 5.5 49 5.4 N 6 13 3 7 - - 0.0
25/05:30pm 15.2 12.3 4.6 49 5.2 N 9 19 5 10 - - 0.0
25/05:00pm 16.6 14.1 4.6 45 6.0 N 7 13 4 7 - - 0.0
25/04:30pm 17.2 15.0 6.4 49 5.6 NNE 7 13 4 7 - - 0.0
25/04:00pm 14.9 12.8 5.7 54 4.6 N 6 13 3 7 - - 0.0
25/03:30pm 15.5 13.1 5.1 50 5.2 N 7 17 4 9 - - 0.0
25/03:00pm 16.3 14.0 5.6 49 5.4 N 7 17 4 9 - - 0.0
25/02:30pm 16.0 14.2 7.0 55 4.7 N 6 13 3 7 - - 0.0
25/02:00pm 15.8 13.9 6.5 54 4.8 NNE 6 13 3 7 - - 0.0
25/01:30pm 15.5 14.0 6.8 56 4.5 NNE 4 7 2 4 - - 0.0
25/01:00pm 14.2 12.7 7.0 62 3.7 W 4 7 2 4 - - 0.0
25/12:30pm 13.8 11.5 7.3 65 3.4 W 9 13 5 7 - - 0.0
25/12:00pm 12.7 10.5 6.3 65 3.2 W 7 13 4 7 - - 0.0
25/11:30am 14.0 11.8 6.1 59 4.0 NNE 7 19 4 10 - - 0.0
25/11:00am 12.8 10.7 5.7 62 3.5 N 6 11 3 6 - - 0.0
25/10:30am 13.5 11.6 6.8 64 3.4 ESE 6 9 3 5 - - 0.0
25/10:00am 12.5 11.3 6.3 66 3.1 ESE 2 6 1 3 - - 0.0
25/09:30am 12.0 10.8 6.3 68 2.8 ESE 2 7 1 4 - - 0.0
25/09:00am 10.9 9.3 6.5 74 2.2 ESE 4 7 2 4 - - 0.0
25/08:30am 9.3 7.7 6.2 81 1.5 ESE 4 6 2 3 - - 0.0
25/08:00am 8.7 7.1 6.3 85 1.2 ESE 4 6 2 3 - - 0.0
25/07:30am 7.9 5.8 5.7 86 1.1 ESE 6 7 3 4 - - 0.0
25/07:00am 8.2 6.5 5.7 84 1.2 ESE 4 7 2 4 - - 0.0
25/06:30am 8.2 6.5 5.8 85 1.2 ESE 4 6 2 3 - - 0.0
25/06:00am 8.1 6.0 5.9 86 1.1 ESE 6 7 3 4 - - 0.0
25/05:30am 7.9 6.2 6.0 88 0.9 ESE 4 7 2 4 - - 0.0
25/05:00am 8.0 5.9 5.8 86 1.1 ESE 6 7 3 4 - - 0.0
25/04:30am 8.0 5.9 5.8 86 1.1 ESE 6 9 3 5 - - 0.0
25/04:00am 8.3 6.0 5.9 85 1.2 ESE 7 9 4 5 - - 0.0
25/03:30am 8.4 6.3 5.9 84 1.2 SE 6 13 3 7 - - 0.0
25/03:00am 8.4 6.1 5.9 84 1.2 SE 7 11 4 6 - - 0.0
25/02:30am 8.4 6.3 5.9 84 1.2 SE 6 11 3 6 - - 0.0
25/02:00am 8.5 6.2 5.8 83 1.3 ESE 7 9 4 5 - - 0.0
25/01:30am 8.7 6.4 5.6 81 1.5 ESE 7 11 4 6 - - 0.0
25/01:00am 8.9 6.6 5.6 80 1.6 SE 7 15 4 8 - - 0.0
25/12:30am 9.0 6.7 5.9 81 1.5 SE 7 13 4 7 - - 0.0
25/12:00am 8.9 6.6 5.8 81 1.5 ESE 7 9 4 5 - - 0.0
 
Date/Time
EDT
Temp
°C
App
Temp
°C
Dew
Point
Rel
Hum
%
Delta-T
°C
Wind Press
QNH
hPa
Press
MSL
hPa
Rain
since 9 am
mm
Dir
 
Spd
km/h
Gust
km/h
Spd
kts
Gust
kts
24/11:30pm 8.6 6.6 6.2 85 1.2 SE 6 11 3 6 - - 0.0
24/11:00pm 8.9 6.9 6.3 84 1.3 SE 6 9 3 5 - - 0.0
24/10:30pm 8.9 6.9 6.3 84 1.3 SSE 6 15 3 8 - - 0.0
24/10:00pm 9.3 7.2 6.6 83 1.3 SSW 7 20 4 11 - - 0.0
24/09:30pm 9.8 8.3 6.7 81 1.5 WSW 4 9 2 5 - - 0.0
24/09:00pm 10.7 9.3 5.7 71 2.4 WSW 2 6 1 3 - - 0.0
24/08:30pm 11.7 9.2 4.9 63 3.3 WSW 7 13 4 7 - - 0.0
24/08:00pm 12.2 9.3 4.9 61 3.5 WSW 9 20 5 11 - - 0.0
24/07:30pm 13.1 10.3 5.0 58 4.0 WSW 9 15 5 8 - - 0.0
24/07:00pm 13.8 11.1 5.4 57 4.2 W 9 17 5 9 - - 0.0
24/06:30pm 14.7 11.9 5.0 52 4.8 WNW 9 17 5 9 - - 0.0
24/06:00pm 16.1 12.9 5.1 48 5.5 WNW 11 22 6 12 - - 0.0
24/05:30pm 16.3 13.9 5.3 48 5.5 WSW 7 17 4 9 - - 0.0
24/05:00pm 16.9 14.5 5.2 46 5.9 NW 7 19 4 10 - - 0.0
24/04:30pm 16.6 14.2 5.3 47 5.7 W 7 17 4 9 - - 0.0
24/04:00pm 16.9 14.2 5.8 48 5.7 WNW 9 22 5 12 - - 0.0
24/03:30pm 17.0 14.9 6.8 51 5.3 W 7 19 4 10 - - 0.0
24/03:00pm 17.1 14.4 7.5 53 5.1 WNW 11 19 6 10 - - 0.0
24/02:30pm 15.5 13.5 7.3 58 4.3 WNW 7 19 4 10 - - 0.0
24/02:00pm 17.2 14.9 7.5 53 5.1 NNW 9 19 5 10 - - 0.0
24/01:30pm 16.3 14.4 7.5 56 4.6 W 7 15 4 8 - - 0.0
24/01:00pm 16.9 14.9 8.8 59 4.4 WNW 9 19 5 10 - - 0.0
24/12:30pm 16.5 14.3 9.2 62 4.0 W 11 22 6 12 - - 0.0
24/12:00pm 15.5 13.5 10.1 70 3.0 WNW 11 20 6 11 - - 0.0
24/11:30am 15.1 14.2 11.3 78 2.1 WNW 7 15 4 8 - - 0.0
24/11:00am 14.6 14.2 12.5 87 1.2 N 6 7 3 4 - - 0.0
24/10:30am 14.3 14.3 12.5 89 1.0 N 4 9 2 5 - - 0.0
24/10:00am 13.7 13.3 11.0 84 1.5 N 4 9 2 5 - - 0.0
24/09:30am 14.4 14.8 12.4 88 1.1 N 2 6 1 3 - - 0.0
24/09:00am 14.0 14.2 12.0 88 1.1 N 2 6 1 3 - - 2.6
24/08:30am 13.8 13.2 11.7 87 1.2 N 6 11 3 6 - - 2.6
24/08:00am 13.9 13.1 10.9 82 1.7 NW 6 9 3 5 - - 2.6
24/07:30am 13.9 13.3 10.3 79 2.0 NW 4 7 2 4 - - 2.6
24/07:00am 14.2 13.1 9.8 75 2.4 NW 6 13 3 7 - - 2.6
24/06:30am 14.4 13.2 9.4 72 2.7 NW 6 9 3 5 - - 2.6

Other Formats:

Comma delimited format used in spreadsheet applications
http://www.bom.gov.au/fwo/IDV60801/IDV60801.94878.axf

JavaScript Object Notation format (JSON) in row-major order
http://www.bom.gov.au/fwo/IDV60801/IDV60801.94878.json